sensor_id;sensor_type;location;lat;lon;timestamp;temperature;humidity
75164;HTU21D;63746;45.402;37.922;2024-01-30T00:02:14;-1.64;76.44
75164;HTU21D;63746;45.402;37.922;2024-01-30T00:04:40;-1.62;76.38
75164;HTU21D;63746;45.402;37.922;2024-01-30T00:07:06;-1.63;76.28
75164;HTU21D;63746;45.402;37.922;2024-01-30T00:09:32;-1.64;76.24
75164;HTU21D;63746;45.402;37.922;2024-01-30T00:11:58;-1.67;76.17
75164;HTU21D;63746;45.402;37.922;2024-01-30T00:14:24;-1.68;76.18
75164;HTU21D;63746;45.402;37.922;2024-01-30T00:16:51;-1.69;76.30
75164;HTU21D;63746;45.402;37.922;2024-01-30T00:19:17;-1.70;76.21
75164;HTU21D;63746;45.402;37.922;2024-01-30T00:21:43;-1.72;76.19
75164;HTU21D;63746;45.402;37.922;2024-01-30T00:24:09;-1.73;76.21
75164;HTU21D;63746;45.402;37.922;2024-01-30T00:26:35;-1.75;76.23
75164;HTU21D;63746;45.402;37.922;2024-01-30T00:29:01;-1.75;76.10
75164;HTU21D;63746;45.402;37.922;2024-01-30T00:31:28;-1.75;76.17
75164;HTU21D;63746;45.402;37.922;2024-01-30T00:33:54;-1.76;76.24
75164;HTU21D;63746;45.402;37.922;2024-01-30T00:36:20;-1.76;76.33
75164;HTU21D;63746;45.402;37.922;2024-01-30T00:38:46;-1.77;76.26
75164;HTU21D;63746;45.402;37.922;2024-01-30T00:41:12;-1.77;76.30
75164;HTU21D;63746;45.402;37.922;2024-01-30T00:43:38;-1.77;76.33
75164;HTU21D;63746;45.402;37.922;2024-01-30T00:46:04;-1.79;76.26
75164;HTU21D;63746;45.402;37.922;2024-01-30T00:48:30;-1.80;76.35
75164;HTU21D;63746;45.402;37.922;2024-01-30T00:50:55;-1.80;76.38
75164;HTU21D;63746;45.402;37.922;2024-01-30T00:53:21;-1.83;76.34
75164;HTU21D;63746;45.402;37.922;2024-01-30T00:55:47;-1.84;76.21
75164;HTU21D;63746;45.402;37.922;2024-01-30T00:58:13;-1.86;76.21
75164;HTU21D;63746;45.402;37.922;2024-01-30T01:00:39;-1.87;76.23
75164;HTU21D;63746;45.402;37.922;2024-01-30T01:03:05;-1.87;76.32
75164;HTU21D;63746;45.402;37.922;2024-01-30T01:05:31;-1.88;76.34
75164;HTU21D;63746;45.402;37.922;2024-01-30T01:07:57;-1.88;76.39
75164;HTU21D;63746;45.402;37.922;2024-01-30T01:10:23;-1.88;76.38
75164;HTU21D;63746;45.402;37.922;2024-01-30T01:12:49;-1.88;76.41
75164;HTU21D;63746;45.402;37.922;2024-01-30T01:15:15;-1.87;76.48
75164;HTU21D;63746;45.402;37.922;2024-01-30T01:17:41;-1.88;76.48
75164;HTU21D;63746;45.402;37.922;2024-01-30T01:20:08;-1.87;76.51
75164;HTU21D;63746;45.402;37.922;2024-01-30T01:22:34;-1.88;76.52
75164;HTU21D;63746;45.402;37.922;2024-01-30T01:25:01;-1.89;76.50
75164;HTU21D;63746;45.402;37.922;2024-01-30T01:27:27;-1.90;76.41
75164;HTU21D;63746;45.402;37.922;2024-01-30T01:29:53;-1.90;76.41
75164;HTU21D;63746;45.402;37.922;2024-01-30T01:32:19;-1.91;76.41
75164;HTU21D;63746;45.402;37.922;2024-01-30T01:34:45;-1.91;76.45
75164;HTU21D;63746;45.402;37.922;2024-01-30T01:37:11;-1.93;76.49
75164;HTU21D;63746;45.402;37.922;2024-01-30T01:39:37;-1.93;76.45
75164;HTU21D;63746;45.402;37.922;2024-01-30T01:42:04;-1.93;76.42
75164;HTU21D;63746;45.402;37.922;2024-01-30T01:44:30;-1.97;76.49
75164;HTU21D;63746;45.402;37.922;2024-01-30T01:46:56;-1.97;76.42
75164;HTU21D;63746;45.402;37.922;2024-01-30T01:49:25;-1.99;76.43
75164;HTU21D;63746;45.402;37.922;2024-01-30T01:51:54;-2.00;76.39
75164;HTU21D;63746;45.402;37.922;2024-01-30T01:54:23;-2.03;76.33
75164;HTU21D;63746;45.402;37.922;2024-01-30T01:56:50;-2.04;76.43
75164;HTU21D;63746;45.402;37.922;2024-01-30T01:59:17;-2.05;76.34
75164;HTU21D;63746;45.402;37.922;2024-01-30T02:01:44;-2.07;76.34
75164;HTU21D;63746;45.402;37.922;2024-01-30T02:04:11;-2.09;76.39
75164;HTU21D;63746;45.402;37.922;2024-01-30T02:06:37;-2.08;76.55
75164;HTU21D;63746;45.402;37.922;2024-01-30T02:09:04;-2.06;76.59
75164;HTU21D;63746;45.402;37.922;2024-01-30T02:11:30;-2.05;76.66
75164;HTU21D;63746;45.402;37.922;2024-01-30T02:13:56;-2.06;76.68
75164;HTU21D;63746;45.402;37.922;2024-01-30T02:16:22;-2.08;76.48
75164;HTU21D;63746;45.402;37.922;2024-01-30T02:18:48;-2.09;76.51
75164;HTU21D;63746;45.402;37.922;2024-01-30T02:21:15;-2.12;76.38
75164;HTU21D;63746;45.402;37.922;2024-01-30T02:23:43;-2.14;76.44
75164;HTU21D;63746;45.402;37.922;2024-01-30T02:26:09;-2.14;76.51
75164;HTU21D;63746;45.402;37.922;2024-01-30T02:28:35;-2.15;76.51
75164;HTU21D;63746;45.402;37.922;2024-01-30T02:31:01;-2.16;76.54
75164;HTU21D;63746;45.402;37.922;2024-01-30T02:33:27;-2.16;76.47
75164;HTU21D;63746;45.402;37.922;2024-01-30T02:35:53;-2.20;76.40
75164;HTU21D;63746;45.402;37.922;2024-01-30T02:38:18;-2.21;76.45
75164;HTU21D;63746;45.402;37.922;2024-01-30T02:40:44;-2.23;76.46
75164;HTU21D;63746;45.402;37.922;2024-01-30T02:43:11;-2.26;76.34
75164;HTU21D;63746;45.402;37.922;2024-01-30T02:45:37;-2.28;76.44
75164;HTU21D;63746;45.402;37.922;2024-01-30T02:48:03;-2.28;76.44
75164;HTU21D;63746;45.402;37.922;2024-01-30T02:50:29;-2.29;76.58
75164;HTU21D;63746;45.402;37.922;2024-01-30T02:52:55;-2.24;76.73
75164;HTU21D;63746;45.402;37.922;2024-01-30T02:55:21;-2.23;76.77
75164;HTU21D;63746;45.402;37.922;2024-01-30T02:57:47;-2.22;76.70
75164;HTU21D;63746;45.402;37.922;2024-01-30T03:00:13;-2.22;76.78
75164;HTU21D;63746;45.402;37.922;2024-01-30T03:02:39;-2.21;76.78
75164;HTU21D;63746;45.402;37.922;2024-01-30T03:05:06;-2.22;76.63
75164;HTU21D;63746;45.402;37.922;2024-01-30T03:07:33;-2.23;76.59
75164;HTU21D;63746;45.402;37.922;2024-01-30T03:09:59;-2.27;76.51
75164;HTU21D;63746;45.402;37.922;2024-01-30T03:12:26;-2.29;76.45
75164;HTU21D;63746;45.402;37.922;2024-01-30T03:14:52;-2.31;76.47
75164;HTU21D;63746;45.402;37.922;2024-01-30T03:17:18;-2.33;76.37
75164;HTU21D;63746;45.402;37.922;2024-01-30T03:19:44;-2.34;76.39
75164;HTU21D;63746;45.402;37.922;2024-01-30T03:22:10;-2.35;76.43
75164;HTU21D;63746;45.402;37.922;2024-01-30T03:24:36;-2.37;76.41
75164;HTU21D;63746;45.402;37.922;2024-01-30T03:27:02;-2.36;76.55
75164;HTU21D;63746;45.402;37.922;2024-01-30T03:29:28;-2.34;76.66
75164;HTU21D;63746;45.402;37.922;2024-01-30T03:31:53;-2.32;76.73
75164;HTU21D;63746;45.402;37.922;2024-01-30T03:34:20;-2.30;76.79
75164;HTU21D;63746;45.402;37.922;2024-01-30T03:36:45;-2.29;76.81
75164;HTU21D;63746;45.402;37.922;2024-01-30T03:39:11;-2.29;76.74
75164;HTU21D;63746;45.402;37.922;2024-01-30T03:41:37;-2.30;76.67
75164;HTU21D;63746;45.402;37.922;2024-01-30T03:44:03;-2.28;76.71
75164;HTU21D;63746;45.402;37.922;2024-01-30T03:46:29;-2.27;76.75
75164;HTU21D;63746;45.402;37.922;2024-01-30T03:48:55;-2.27;76.71
75164;HTU21D;63746;45.402;37.922;2024-01-30T03:51:21;-2.28;76.57
75164;HTU21D;63746;45.402;37.922;2024-01-30T03:53:47;-2.30;76.55
75164;HTU21D;63746;45.402;37.922;2024-01-30T03:56:13;-2.31;76.57
75164;HTU21D;63746;45.402;37.922;2024-01-30T03:58:39;-2.31;76.51
75164;HTU21D;63746;45.402;37.922;2024-01-30T04:01:05;-2.32;76.62
75164;HTU21D;63746;45.402;37.922;2024-01-30T04:03:31;-2.30;76.66
75164;HTU21D;63746;45.402;37.922;2024-01-30T04:05:57;-2.30;76.60
75164;HTU21D;63746;45.402;37.922;2024-01-30T04:08:23;-2.31;76.55
75164;HTU21D;63746;45.402;37.922;2024-01-30T04:10:49;-2.31;76.61
75164;HTU21D;63746;45.402;37.922;2024-01-30T04:13:15;-2.31;76.64
75164;HTU21D;63746;45.402;37.922;2024-01-30T04:15:41;-2.30;76.64
75164;HTU21D;63746;45.402;37.922;2024-01-30T04:18:07;-2.30;76.60
75164;HTU21D;63746;45.402;37.922;2024-01-30T04:20:33;-2.31;76.62
75164;HTU21D;63746;45.402;37.922;2024-01-30T04:22:59;-2.31;76.53
75164;HTU21D;63746;45.402;37.922;2024-01-30T04:25:25;-2.32;76.45
75164;HTU21D;63746;45.402;37.922;2024-01-30T04:27:51;-2.33;76.50
75164;HTU21D;63746;45.402;37.922;2024-01-30T04:30:17;-2.31;76.64
75164;HTU21D;63746;45.402;37.922;2024-01-30T04:32:43;-2.31;76.60
75164;HTU21D;63746;45.402;37.922;2024-01-30T04:35:10;-2.30;76.64
75164;HTU21D;63746;45.402;37.922;2024-01-30T04:37:36;-2.30;76.65
75164;HTU21D;63746;45.402;37.922;2024-01-30T04:40:02;-2.30;76.66
75164;HTU21D;63746;45.402;37.922;2024-01-30T04:42:28;-2.29;76.55
75164;HTU21D;63746;45.402;37.922;2024-01-30T04:44:54;-2.31;76.48
75164;HTU21D;63746;45.402;37.922;2024-01-30T04:47:20;-2.31;76.53
75164;HTU21D;63746;45.402;37.922;2024-01-30T04:49:46;-2.31;76.52
75164;HTU21D;63746;45.402;37.922;2024-01-30T04:52:12;-2.31;76.61
75164;HTU21D;63746;45.402;37.922;2024-01-30T04:54:38;-2.30;76.70
75164;HTU21D;63746;45.402;37.922;2024-01-30T04:57:04;-2.27;76.67
75164;HTU21D;63746;45.402;37.922;2024-01-30T04:59:35;-2.31;76.53
75164;HTU21D;63746;45.402;37.922;2024-01-30T05:02:01;-2.31;76.53
75164;HTU21D;63746;45.402;37.922;2024-01-30T05:04:28;-2.32;76.57
75164;HTU21D;63746;45.402;37.922;2024-01-30T05:06:54;-2.29;76.64
75164;HTU21D;63746;45.402;37.922;2024-01-30T05:09:20;-2.29;76.65
75164;HTU21D;63746;45.402;37.922;2024-01-30T05:11:46;-2.27;76.70
75164;HTU21D;63746;45.402;37.922;2024-01-30T05:14:12;-2.26;76.65
75164;HTU21D;63746;45.402;37.922;2024-01-30T05:16:38;-2.27;76.59
75164;HTU21D;63746;45.402;37.922;2024-01-30T05:19:04;-2.27;76.55
75164;HTU21D;63746;45.402;37.922;2024-01-30T05:21:30;-2.27;76.61
75164;HTU21D;63746;45.402;37.922;2024-01-30T05:23:56;-2.23;76.70
75164;HTU21D;63746;45.402;37.922;2024-01-30T05:26:22;-2.24;76.63
75164;HTU21D;63746;45.402;37.922;2024-01-30T05:28:48;-2.24;76.53
75164;HTU21D;63746;45.402;37.922;2024-01-30T05:31:14;-2.22;76.66
75164;HTU21D;63746;45.402;37.922;2024-01-30T05:33:41;-2.20;76.64
75164;HTU21D;63746;45.402;37.922;2024-01-30T05:36:07;-2.19;76.74
75164;HTU21D;63746;45.402;37.922;2024-01-30T05:38:33;-2.16;76.71
75164;HTU21D;63746;45.402;37.922;2024-01-30T05:40:59;-2.16;76.75
75164;HTU21D;63746;45.402;37.922;2024-01-30T05:43:25;-2.12;76.74
75164;HTU21D;63746;45.402;37.922;2024-01-30T05:45:51;-2.08;76.83
75164;HTU21D;63746;45.402;37.922;2024-01-30T05:48:18;-2.04;76.81
75164;HTU21D;63746;45.402;37.922;2024-01-30T05:50:44;-2.05;76.68
75164;HTU21D;63746;45.402;37.922;2024-01-30T05:53:11;-2.03;76.71
75164;HTU21D;63746;45.402;37.922;2024-01-30T05:55:37;-2.02;76.66
75164;HTU21D;63746;45.402;37.922;2024-01-30T05:58:03;-1.98;76.81
75164;HTU21D;63746;45.402;37.922;2024-01-30T06:00:29;-1.93;76.95
75164;HTU21D;63746;45.402;37.922;2024-01-30T06:02:55;-1.86;77.02
75164;HTU21D;63746;45.402;37.922;2024-01-30T06:05:22;-1.84;77.00
75164;HTU21D;63746;45.402;37.922;2024-01-30T06:07:48;-1.78;76.95
75164;HTU21D;63746;45.402;37.922;2024-01-30T06:10:14;-1.75;77.02
75164;HTU21D;63746;45.402;37.922;2024-01-30T06:12:40;-1.70;76.98
75164;HTU21D;63746;45.402;37.922;2024-01-30T06:15:06;-1.65;77.07
75164;HTU21D;63746;45.402;37.922;2024-01-30T06:17:32;-1.58;77.18
75164;HTU21D;63746;45.402;37.922;2024-01-30T06:19:58;-1.49;77.19
75164;HTU21D;63746;45.402;37.922;2024-01-30T06:22:25;-1.46;77.11
75164;HTU21D;63746;45.402;37.922;2024-01-30T06:24:51;-1.42;76.99
75164;HTU21D;63746;45.402;37.922;2024-01-30T06:27:17;-1.36;77.15
75164;HTU21D;63746;45.402;37.922;2024-01-30T06:29:43;-1.25;77.24
75164;HTU21D;63746;45.402;37.922;2024-01-30T06:32:09;-1.18;77.20
75164;HTU21D;63746;45.402;37.922;2024-01-30T06:34:35;-1.10;77.33
75164;HTU21D;63746;45.402;37.922;2024-01-30T06:37:01;-1.00;77.40
75164;HTU21D;63746;45.402;37.922;2024-01-30T06:39:28;-0.90;77.30
75164;HTU21D;63746;45.402;37.922;2024-01-30T06:41:54;-0.84;77.10
75164;HTU21D;63746;45.402;37.922;2024-01-30T06:44:20;-0.77;77.09
75164;HTU21D;63746;45.402;37.922;2024-01-30T06:46:46;-0.68;77.14
75164;HTU21D;63746;45.402;37.922;2024-01-30T06:49:12;-0.58;77.20
75164;HTU21D;63746;45.402;37.922;2024-01-30T06:51:38;-0.49;77.24
75164;HTU21D;63746;45.402;37.922;2024-01-30T06:54:04;-0.39;77.31
75164;HTU21D;63746;45.402;37.922;2024-01-30T06:56:30;-0.27;77.31
75164;HTU21D;63746;45.402;37.922;2024-01-30T06:58:56;-0.16;77.37
75164;HTU21D;63746;45.402;37.922;2024-01-30T07:01:30;-0.03;77.26
75164;HTU21D;63746;45.402;37.922;2024-01-30T07:03:56;0.04;77.09
75164;HTU21D;63746;45.402;37.922;2024-01-30T07:06:23;0.12;76.89
75164;HTU21D;63746;45.402;37.922;2024-01-30T07:08:49;0.16;76.73
75164;HTU21D;63746;45.402;37.922;2024-01-30T07:11:19;0.20;76.57
75164;HTU21D;63746;45.402;37.922;2024-01-30T07:13:45;0.25;76.47
75164;HTU21D;63746;45.402;37.922;2024-01-30T07:16:12;0.29;76.02
75164;HTU21D;63746;45.402;37.922;2024-01-30T07:18:38;0.29;75.79
75164;HTU21D;63746;45.402;37.922;2024-01-30T07:21:04;0.33;76.08
75164;HTU21D;63746;45.402;37.922;2024-01-30T07:23:30;0.39;76.08
75164;HTU21D;63746;45.402;37.922;2024-01-30T07:25:56;0.44;76.08
75164;HTU21D;63746;45.402;37.922;2024-01-30T07:28:22;0.53;76.37
75164;HTU21D;63746;45.402;37.922;2024-01-30T07:30:48;0.65;76.40
75164;HTU21D;63746;45.402;37.922;2024-01-30T07:33:14;0.73;76.34
75164;HTU21D;63746;45.402;37.922;2024-01-30T07:35:40;0.82;76.47
75164;HTU21D;63746;45.402;37.922;2024-01-30T07:38:06;0.92;76.48
75164;HTU21D;63746;45.402;37.922;2024-01-30T07:40:32;0.98;76.25
75164;HTU21D;63746;45.402;37.922;2024-01-30T07:42:59;1.06;76.33
75164;HTU21D;63746;45.402;37.922;2024-01-30T07:45:25;1.10;76.10
75164;HTU21D;63746;45.402;37.922;2024-01-30T07:47:53;1.14;75.79
75164;HTU21D;63746;45.402;37.922;2024-01-30T07:50:19;1.14;75.60
75164;HTU21D;63746;45.402;37.922;2024-01-30T07:52:45;1.18;75.55
75164;HTU21D;63746;45.402;37.922;2024-01-30T07:58:39;1.34;75.90
75164;HTU21D;63746;45.402;37.922;2024-01-30T08:01:05;1.41;75.76
75164;HTU21D;63746;45.402;37.922;2024-01-30T08:03:31;1.46;75.82
75164;HTU21D;63746;45.402;37.922;2024-01-30T08:05:57;1.52;75.69
75164;HTU21D;63746;45.402;37.922;2024-01-30T08:08:23;1.57;75.61
75164;HTU21D;63746;45.402;37.922;2024-01-30T08:10:49;1.61;75.54
75164;HTU21D;63746;45.402;37.922;2024-01-30T08:13:15;1.66;75.61
75164;HTU21D;63746;45.402;37.922;2024-01-30T08:15:41;1.78;75.86
75164;HTU21D;63746;45.402;37.922;2024-01-30T08:18:07;1.88;75.81
75164;HTU21D;63746;45.402;37.922;2024-01-30T08:20:33;1.95;75.47
75164;HTU21D;63746;45.402;37.922;2024-01-30T08:22:59;1.99;75.33
75164;HTU21D;63746;45.402;37.922;2024-01-30T08:25:27;2.00;75.18
75164;HTU21D;63746;45.402;37.922;2024-01-30T08:27:53;2.02;75.06
75164;HTU21D;63746;45.402;37.922;2024-01-30T08:30:19;2.07;75.07
75164;HTU21D;63746;45.402;37.922;2024-01-30T08:32:45;2.16;75.27
75164;HTU21D;63746;45.402;37.922;2024-01-30T08:35:11;2.29;75.79
75164;HTU21D;63746;45.402;37.922;2024-01-30T08:37:39;2.42;75.86
75164;HTU21D;63746;45.402;37.922;2024-01-30T08:40:07;2.55;75.86
75164;HTU21D;63746;45.402;37.922;2024-01-30T08:42:34;2.64;75.89
75164;HTU21D;63746;45.402;37.922;2024-01-30T08:45:00;2.67;75.39
75164;HTU21D;63746;45.402;37.922;2024-01-30T08:47:26;2.70;74.79
75164;HTU21D;63746;45.402;37.922;2024-01-30T08:49:52;2.73;74.95
75164;HTU21D;63746;45.402;37.922;2024-01-30T08:52:18;2.80;75.18
75164;HTU21D;63746;45.402;37.922;2024-01-30T08:54:44;2.90;75.56
75164;HTU21D;63746;45.402;37.922;2024-01-30T08:57:10;3.01;75.13
75164;HTU21D;63746;45.402;37.922;2024-01-30T08:59:36;3.01;74.45
75164;HTU21D;63746;45.402;37.922;2024-01-30T09:02:02;2.98;74.35
75164;HTU21D;63746;45.402;37.922;2024-01-30T09:04:29;2.97;73.76
75164;HTU21D;63746;45.402;37.922;2024-01-30T09:06:55;2.91;73.86
75164;HTU21D;63746;45.402;37.922;2024-01-30T09:09:21;2.91;74.06
75164;HTU21D;63746;45.402;37.922;2024-01-30T09:11:47;2.94;74.06
75164;HTU21D;63746;45.402;37.922;2024-01-30T09:14:13;2.94;74.02
75164;HTU21D;63746;45.402;37.922;2024-01-30T09:16:39;2.91;73.66
75164;HTU21D;63746;45.402;37.922;2024-01-30T09:19:05;2.89;73.57
75164;HTU21D;63746;45.402;37.922;2024-01-30T09:21:31;2.91;73.93
75164;HTU21D;63746;45.402;37.922;2024-01-30T09:24:02;2.95;74.02
75164;HTU21D;63746;45.402;37.922;2024-01-30T09:26:29;3.00;74.26
75164;HTU21D;63746;45.402;37.922;2024-01-30T09:28:55;3.12;74.67
75164;HTU21D;63746;45.402;37.922;2024-01-30T09:31:21;3.18;74.62
75164;HTU21D;63746;45.402;37.922;2024-01-30T09:33:47;3.23;74.22
75164;HTU21D;63746;45.402;37.922;2024-01-30T09:36:15;3.27;74.24
75164;HTU21D;63746;45.402;37.922;2024-01-30T09:38:44;3.36;74.68
75164;HTU21D;63746;45.402;37.922;2024-01-30T09:41:10;3.45;74.65
75164;HTU21D;63746;45.402;37.922;2024-01-30T09:43:37;3.47;74.42
75164;HTU21D;63746;45.402;37.922;2024-01-30T09:46:05;3.50;74.61
75164;HTU21D;63746;45.402;37.922;2024-01-30T09:48:32;3.53;74.47
75164;HTU21D;63746;45.402;37.922;2024-01-30T09:50:59;3.59;74.77
75164;HTU21D;63746;45.402;37.922;2024-01-30T09:53:25;3.65;74.71
75164;HTU21D;63746;45.402;37.922;2024-01-30T09:55:52;3.69;74.80
75164;HTU21D;63746;45.402;37.922;2024-01-30T09:58:18;3.70;74.35
75164;HTU21D;63746;45.402;37.922;2024-01-30T10:00:44;3.68;74.41
75164;HTU21D;63746;45.402;37.922;2024-01-30T10:03:10;3.71;74.35
75164;HTU21D;63746;45.402;37.922;2024-01-30T10:05:36;3.74;74.49
75164;HTU21D;63746;45.402;37.922;2024-01-30T10:08:05;3.73;73.35
75164;HTU21D;63746;45.402;37.922;2024-01-30T10:10:32;3.72;73.95
75164;HTU21D;63746;45.402;37.922;2024-01-30T10:12:58;3.70;73.96
75164;HTU21D;63746;45.402;37.922;2024-01-30T10:15:24;3.68;74.03
75164;HTU21D;63746;45.402;37.922;2024-01-30T10:17:51;3.68;73.80
75164;HTU21D;63746;45.402;37.922;2024-01-30T10:20:17;3.70;74.31
75164;HTU21D;63746;45.402;37.922;2024-01-30T10:22:45;3.75;74.31
75164;HTU21D;63746;45.402;37.922;2024-01-30T10:25:11;3.78;74.25
75164;HTU21D;63746;45.402;37.922;2024-01-30T10:27:39;3.82;74.57
75164;HTU21D;63746;45.402;37.922;2024-01-30T10:30:06;3.86;74.63
75164;HTU21D;63746;45.402;37.922;2024-01-30T10:32:33;3.91;74.68
75164;HTU21D;63746;45.402;37.922;2024-01-30T10:34:59;3.91;74.54
75164;HTU21D;63746;45.402;37.922;2024-01-30T10:37:28;3.92;74.70
75164;HTU21D;63746;45.402;37.922;2024-01-30T10:40:01;3.97;74.79
75164;HTU21D;63746;45.402;37.922;2024-01-30T10:42:31;3.98;74.39
75164;HTU21D;63746;45.402;37.922;2024-01-30T10:47:28;4.04;74.47
75164;HTU21D;63746;45.402;37.922;2024-01-30T10:49:55;4.04;74.47
75164;HTU21D;63746;45.402;37.922;2024-01-30T10:52:23;4.07;74.64
75164;HTU21D;63746;45.402;37.922;2024-01-30T10:54:55;4.12;74.69
75164;HTU21D;63746;45.402;37.922;2024-01-30T10:57:25;4.18;74.89
75164;HTU21D;63746;45.402;37.922;2024-01-30T10:59:55;4.22;74.78
75164;HTU21D;63746;45.402;37.922;2024-01-30T11:02:23;4.26;74.76
75164;HTU21D;63746;45.402;37.922;2024-01-30T11:04:49;4.29;74.75
75164;HTU21D;63746;45.402;37.922;2024-01-30T11:07:16;4.29;74.52
75164;HTU21D;63746;45.402;37.922;2024-01-30T11:09:53;4.26;74.57
75164;HTU21D;63746;45.402;37.922;2024-01-30T11:12:25;4.26;74.58
75164;HTU21D;63746;45.402;37.922;2024-01-30T11:15:06;4.30;74.73
75164;HTU21D;63746;45.402;37.922;2024-01-30T11:20:19;4.39;74.98
75164;HTU21D;63746;45.402;37.922;2024-01-30T11:22:47;4.45;74.98
75164;HTU21D;63746;45.402;37.922;2024-01-30T11:25:14;4.45;74.61
75164;HTU21D;63746;45.402;37.922;2024-01-30T11:27:44;4.49;74.84
75164;HTU21D;63746;45.402;37.922;2024-01-30T11:30:20;4.50;74.73
75164;HTU21D;63746;45.402;37.922;2024-01-30T11:33:00;4.56;74.92
75164;HTU21D;63746;45.402;37.922;2024-01-30T11:35:26;4.57;74.44
75164;HTU21D;63746;45.402;37.922;2024-01-30T11:37:54;4.49;74.28
75164;HTU21D;63746;45.402;37.922;2024-01-30T11:40:21;4.46;74.41
75164;HTU21D;63746;45.402;37.922;2024-01-30T11:42:48;4.45;74.41
75164;HTU21D;63746;45.402;37.922;2024-01-30T11:45:15;4.39;74.23
75164;HTU21D;63746;45.402;37.922;2024-01-30T11:47:41;4.31;73.97
75164;HTU21D;63746;45.402;37.922;2024-01-30T11:50:07;4.26;74.30
75164;HTU21D;63746;45.402;37.922;2024-01-30T11:52:36;4.23;74.25
75164;HTU21D;63746;45.402;37.922;2024-01-30T11:55:02;4.20;74.38
75164;HTU21D;63746;45.402;37.922;2024-01-30T11:57:29;4.19;74.44
75164;HTU21D;63746;45.402;37.922;2024-01-30T11:59:55;4.17;74.41
75164;HTU21D;63746;45.402;37.922;2024-01-30T12:02:21;4.18;74.56
75164;HTU21D;63746;45.402;37.922;2024-01-30T12:04:47;4.19;74.54
75164;HTU21D;63746;45.402;37.922;2024-01-30T12:07:14;4.15;74.54
75164;HTU21D;63746;45.402;37.922;2024-01-30T12:09:52;4.13;74.54
75164;HTU21D;63746;45.402;37.922;2024-01-30T12:12:18;4.10;74.23
75164;HTU21D;63746;45.402;37.922;2024-01-30T12:14:45;4.03;74.09
75164;HTU21D;63746;45.402;37.922;2024-01-30T12:17:11;4.00;74.09
75164;HTU21D;63746;45.402;37.922;2024-01-30T12:19:38;3.94;73.88
75164;HTU21D;63746;45.402;37.922;2024-01-30T12:22:04;3.91;74.26
75164;HTU21D;63746;45.402;37.922;2024-01-30T12:24:30;3.91;74.43
75164;HTU21D;63746;45.402;37.922;2024-01-30T12:26:58;3.91;74.54
75164;HTU21D;63746;45.402;37.922;2024-01-30T12:29:24;3.93;74.56
75164;HTU21D;63746;45.402;37.922;2024-01-30T12:31:53;3.95;74.59
75164;HTU21D;63746;45.402;37.922;2024-01-30T12:34:20;3.91;74.28
75164;HTU21D;63746;45.402;37.922;2024-01-30T12:36:47;3.89;74.42
75164;HTU21D;63746;45.402;37.922;2024-01-30T12:39:15;3.88;74.07
75164;HTU21D;63746;45.402;37.922;2024-01-30T12:41:41;3.85;73.98
75164;HTU21D;63746;45.402;37.922;2024-01-30T12:44:07;3.79;74.13
75164;HTU21D;63746;45.402;37.922;2024-01-30T12:46:36;3.77;74.40
75164;HTU21D;63746;45.402;37.922;2024-01-30T12:49:02;3.80;74.51
75164;HTU21D;63746;45.402;37.922;2024-01-30T12:51:28;3.79;74.60
75164;HTU21D;63746;45.402;37.922;2024-01-30T12:53:55;3.78;74.42
75164;HTU21D;63746;45.402;37.922;2024-01-30T12:56:21;3.82;74.72
75164;HTU21D;63746;45.402;37.922;2024-01-30T12:58:47;3.86;74.84
75164;HTU21D;63746;45.402;37.922;2024-01-30T13:01:13;3.90;74.84
75164;HTU21D;63746;45.402;37.922;2024-01-30T13:03:39;3.92;74.94
75164;HTU21D;63746;45.402;37.922;2024-01-30T13:06:05;3.95;74.90
75164;HTU21D;63746;45.402;37.922;2024-01-30T13:08:31;3.98;74.89
75164;HTU21D;63746;45.402;37.922;2024-01-30T13:10:58;3.98;74.76
75164;HTU21D;63746;45.402;37.922;2024-01-30T13:13:24;3.98;74.58
75164;HTU21D;63746;45.402;37.922;2024-01-30T13:15:50;3.93;74.37
75164;HTU21D;63746;45.402;37.922;2024-01-30T13:18:16;3.88;74.16
75164;HTU21D;63746;45.402;37.922;2024-01-30T13:20:42;3.84;74.25
75164;HTU21D;63746;45.402;37.922;2024-01-30T13:23:08;3.79;74.30
75164;HTU21D;63746;45.402;37.922;2024-01-30T13:25:35;3.76;74.36
75164;HTU21D;63746;45.402;37.922;2024-01-30T13:28:01;3.72;74.38
75164;HTU21D;63746;45.402;37.922;2024-01-30T13:30:27;3.68;74.28
75164;HTU21D;63746;45.402;37.922;2024-01-30T13:32:53;3.64;74.28
75164;HTU21D;63746;45.402;37.922;2024-01-30T13:35:20;3.61;74.44
75164;HTU21D;63746;45.402;37.922;2024-01-30T13:37:46;3.59;74.56
75164;HTU21D;63746;45.402;37.922;2024-01-30T13:40:14;3.57;74.60
75164;HTU21D;63746;45.402;37.922;2024-01-30T13:42:42;3.55;74.70
75164;HTU21D;63746;45.402;37.922;2024-01-30T13:45:08;3.54;74.66
75164;HTU21D;63746;45.402;37.922;2024-01-30T13:47:35;3.52;74.64
75164;HTU21D;63746;45.402;37.922;2024-01-30T13:50:01;3.48;74.54
75164;HTU21D;63746;45.402;37.922;2024-01-30T13:52:28;3.45;74.51
75164;HTU21D;63746;45.402;37.922;2024-01-30T13:54:54;3.40;74.46
75164;HTU21D;63746;45.402;37.922;2024-01-30T13:57:20;3.38;74.47
75164;HTU21D;63746;45.402;37.922;2024-01-30T13:59:47;3.35;74.66
75164;HTU21D;63746;45.402;37.922;2024-01-30T14:02:13;3.34;74.66
75164;HTU21D;63746;45.402;37.922;2024-01-30T14:04:39;3.32;74.65
75164;HTU21D;63746;45.402;37.922;2024-01-30T14:07:06;3.31;74.76
75164;HTU21D;63746;45.402;37.922;2024-01-30T14:09:32;3.30;74.75
75164;HTU21D;63746;45.402;37.922;2024-01-30T14:11:58;3.30;74.85
75164;HTU21D;63746;45.402;37.922;2024-01-30T14:14:24;3.28;74.73
75164;HTU21D;63746;45.402;37.922;2024-01-30T14:16:50;3.25;74.71
75164;HTU21D;63746;45.402;37.922;2024-01-30T14:19:16;3.21;74.61
75164;HTU21D;63746;45.402;37.922;2024-01-30T14:21:42;3.18;74.56
75164;HTU21D;63746;45.402;37.922;2024-01-30T14:24:08;3.12;74.39
75164;HTU21D;63746;45.402;37.922;2024-01-30T14:26:35;3.09;74.48
75164;HTU21D;63746;45.402;37.922;2024-01-30T14:29:01;3.06;74.54
75164;HTU21D;63746;45.402;37.922;2024-01-30T14:31:27;3.03;74.63
75164;HTU21D;63746;45.402;37.922;2024-01-30T14:33:53;3.02;74.72
75164;HTU21D;63746;45.402;37.922;2024-01-30T14:36:20;3.02;74.76
75164;HTU21D;63746;45.402;37.922;2024-01-30T14:38:47;3.01;74.83
75164;HTU21D;63746;45.402;37.922;2024-01-30T14:41:13;2.99;74.79
75164;HTU21D;63746;45.402;37.922;2024-01-30T14:43:40;2.99;74.71
75164;HTU21D;63746;45.402;37.922;2024-01-30T14:46:06;2.95;74.72
75164;HTU21D;63746;45.402;37.922;2024-01-30T14:48:33;2.94;74.75
75164;HTU21D;63746;45.402;37.922;2024-01-30T14:50:59;2.93;74.69
75164;HTU21D;63746;45.402;37.922;2024-01-30T14:53:25;2.90;74.61
75164;HTU21D;63746;45.402;37.922;2024-01-30T14:55:51;2.86;74.58
75164;HTU21D;63746;45.402;37.922;2024-01-30T14:58:17;2.83;74.64
75164;HTU21D;63746;45.402;37.922;2024-01-30T15:03:28;2.81;74.58
75164;HTU21D;63746;45.402;37.922;2024-01-30T15:05:55;2.76;74.48
75164;HTU21D;63746;45.402;37.922;2024-01-30T15:08:21;2.74;74.54
75164;HTU21D;63746;45.402;37.922;2024-01-30T15:10:47;2.70;74.38
75164;HTU21D;63746;45.402;37.922;2024-01-30T15:13:16;2.66;74.29
75164;HTU21D;63746;45.402;37.922;2024-01-30T15:15:42;2.61;74.35
75164;HTU21D;63746;45.402;37.922;2024-01-30T15:18:08;2.56;74.28